Time;durP1;ratioP1;P1;durP2;ratioP2;P2;SDS_P1;SDS_P2;PMS_P1;PMS_P2;Temp;Humidity;BMP_temperature;BMP_pressure;BME280_temperature;BME280_humidity;BME280_pressure;Samples;Min_cycle;Max_cycle;Signal;HPM_P1;HPM_P2
2023/06/02 00:00:40;;;;;;;7.90;4.43;;;12.80;99.90;;;;;;4137914;28;20220;-91
2023/06/02 00:02:41;;;;;;;10.80;4.15;;;12.90;99.90;;;;;;4154744;28;20207;-95
2023/06/02 00:04:42;;;;;;;7.82;4.15;;;12.80;99.90;;;;;;4138300;28;20177;-94
2023/06/02 00:06:45;;;;;;;8.68;4.82;;;12.70;99.90;;;;;;4153881;28;20184;-92
2023/06/02 00:08:46;;;;;;;10.07;4.78;;;12.60;99.90;;;;;;4154361;28;20263;-94
2023/06/02 00:10:47;;;;;;;8.82;4.82;;;12.60;99.90;;;;;;4137727;28;20165;-92
2023/06/02 00:12:49;;;;;;;8.77;4.63;;;12.60;99.90;;;;;;4171154;28;20178;-94
2023/06/02 00:14:50;;;;;;;9.77;4.82;;;12.60;99.90;;;;;;4138249;28;20209;-92
2023/06/02 00:16:51;;;;;;;10.70;4.15;;;12.60;99.90;;;;;;4138375;28;20216;-91
2023/06/02 00:18:56;;;;;;;9.63;4.40;;;12.70;99.90;;;;;;4153884;28;20247;-94
2023/06/02 00:20:58;;;;;;;11.95;4.65;;;12.80;99.90;;;;;;4139364;28;20217;-91
2023/06/02 00:23:00;;;;;;;8.48;3.97;;;12.80;99.90;;;;;;4137238;28;20181;-90
2023/06/02 00:25:01;;;;;;;9.93;5.03;;;13.00;99.90;;;;;;4137709;28;20173;-92
2023/06/02 00:27:02;;;;;;;9.82;5.43;;;13.10;99.90;;;;;;4156247;28;20199;-96
2023/06/02 00:29:02;;;;;;;10.45;6.20;;;13.10;99.90;;;;;;4153427;28;20656;-91
2023/06/02 00:31:03;;;;;;;10.63;6.65;;;13.10;99.90;;;;;;4138399;28;20216;-91
2023/06/02 00:33:07;;;;;;;16.25;6.55;;;13.00;99.90;;;;;;4153578;28;20507;-92
2023/06/02 00:35:08;;;;;;;10.10;5.45;;;13.00;99.90;;;;;;4150367;28;20188;-94
2023/06/02 00:37:09;;;;;;;11.77;6.80;;;13.20;99.90;;;;;;4151279;28;20704;-91
2023/06/02 00:39:10;;;;;;;9.05;6.78;;;13.20;99.90;;;;;;4136921;28;20197;-92
2023/06/02 00:41:11;;;;;;;10.88;6.82;;;13.20;99.90;;;;;;4134903;28;20198;-94
2023/06/02 00:43:13;;;;;;;14.60;6.80;;;13.10;99.90;;;;;;4152814;28;20196;-93
2023/06/02 00:45:16;;;;;;;9.05;6.82;;;13.20;99.90;;;;;;4152040;28;20176;-92
2023/06/02 00:47:16;;;;;;;13.85;7.15;;;13.20;99.90;;;;;;4151332;28;20177;-92
2023/06/02 00:49:17;;;;;;;13.32;6.47;;;13.20;99.90;;;;;;4150447;28;20165;-91
2023/06/02 00:51:22;;;;;;;10.82;5.88;;;13.30;99.90;;;;;;4134683;28;20170;-92
2023/06/02 00:53:26;;;;;;;9.30;5.18;;;13.30;99.90;;;;;;4134761;28;20180;-94
2023/06/02 00:55:29;;;;;;;11.90;4.82;;;13.30;99.90;;;;;;4135974;28;20184;-92
2023/06/02 00:57:33;;;;;;;11.43;5.03;;;13.20;99.90;;;;;;4135372;28;20173;-90
2023/06/02 00:59:36;;;;;;;10.55;4.82;;;13.10;99.90;;;;;;4150610;28;20213;-95
2023/06/02 01:01:38;;;;;;;7.50;4.80;;;13.10;99.90;;;;;;4134864;28;20165;-95
2023/06/02 01:03:45;;;;;;;9.30;4.60;;;13.20;99.90;;;;;;4152807;28;20184;-91
2023/06/02 01:05:50;;;;;;;9.13;4.50;;;13.10;99.90;;;;;;4134740;28;20194;-92
2023/06/02 01:07:58;;;;;;;10.90;5.07;;;13.10;99.90;;;;;;4134780;28;20173;-91
2023/06/02 01:10:02;;;;;;;6.72;4.22;;;13.10;99.90;;;;;;4151615;28;20195;-96
2023/06/02 01:12:03;;;;;;;9.10;4.30;;;13.10;99.90;;;;;;4135889;28;20209;-92
2023/06/02 01:14:05;;;;;;;9.15;4.30;;;13.10;99.90;;;;;;4151422;28;20723;-92
2023/06/02 01:16:06;;;;;;;9.15;4.57;;;13.00;99.90;;;;;;4134343;28;20565;-94
2023/06/02 01:18:09;;;;;;;13.35;5.07;;;13.00;99.90;;;;;;4152166;28;20169;-92
2023/06/02 01:20:11;;;;;;;10.18;4.80;;;13.00;99.90;;;;;;4133639;28;20226;-93
2023/06/02 01:22:15;;;;;;;10.73;4.57;;;13.10;99.90;;;;;;4150871;28;20176;-91
2023/06/02 01:24:17;;;;;;;9.85;4.65;;;13.10;99.90;;;;;;4134550;28;20289;-91
2023/06/02 01:26:18;;;;;;;9.35;4.40;;;13.00;99.90;;;;;;4134808;28;20240;-95
2023/06/02 01:28:19;;;;;;;10.98;5.35;;;13.10;99.90;;;;;;4150765;28;20181;-91
2023/06/02 01:30:20;;;;;;;10.75;5.20;;;13.20;99.90;;;;;;4134783;28;20256;-93
2023/06/02 01:32:39;;;;;;;8.85;4.75;;;13.20;99.90;;;;;;4135494;28;20260;-93
2023/06/02 01:34:56;;;;;;;11.93;3.90;;;13.00;99.90;;;;;;4151761;28;20169;-92
2023/06/02 01:37:01;;;;;;;8.27;4.35;;;12.90;99.90;;;;;;4150627;28;20312;-92
2023/06/02 01:39:04;;;;;;;10.85;5.45;;;12.90;99.90;;;;;;4135637;28;20194;-91
2023/06/02 01:41:06;;;;;;;8.68;4.90;;;12.90;99.90;;;;;;4150866;28;20216;-91
2023/06/02 01:43:09;;;;;;;14.15;6.70;;;12.90;99.90;;;;;;4134981;28;20184;-95
2023/06/02 01:45:11;;;;;;;14.90;7.47;;;13.00;99.90;;;;;;4132901;28;20232;-92
2023/06/02 01:47:12;;;;;;;7.65;5.57;;;12.90;99.90;;;;;;4149558;28;20193;-90
2023/06/02 01:49:16;;;;;;;13.57;5.53;;;12.80;99.90;;;;;;4134277;28;20736;-91
2023/06/02 01:51:17;;;;;;;15.73;6.10;;;12.70;99.90;;;;;;4131591;28;20185;-92
2023/06/02 01:53:19;;;;;;;12.68;4.78;;;12.70;99.90;;;;;;4150359;28;20173;-91
2023/06/02 01:55:21;;;;;;;12.60;5.20;;;12.60;99.90;;;;;;4150465;28;20183;-91
2023/06/02 01:57:22;;;;;;;11.05;5.63;;;12.60;99.90;;;;;;4150290;28;20263;-90
2023/06/02 01:59:23;;;;;;;15.52;7.38;;;12.70;99.90;;;;;;4133743;28;20643;-91
2023/06/02 02:01:27;;;;;;;15.07;8.65;;;12.60;99.90;;;;;;4150616;28;20181;-94
2023/06/02 02:03:30;;;;;;;15.80;8.88;;;12.50;99.90;;;;;;4166473;28;20164;-93
2023/06/02 02:05:31;;;;;;;19.95;8.93;;;12.50;99.90;;;;;;4151124;28;20185;-91
2023/06/02 02:07:32;;;;;;;18.73;10.20;;;12.40;99.90;;;;;;4150406;28;20169;-90
2023/06/02 02:09:33;;;;;;;17.95;9.15;;;12.40;99.90;;;;;;4166526;28;20180;-94
2023/06/02 02:11:34;;;;;;;15.70;9.05;;;12.40;99.90;;;;;;4150673;28;20196;-94
2023/06/02 02:13:35;;;;;;;13.15;8.77;;;12.40;99.90;;;;;;4166923;28;20195;-93
2023/06/02 02:15:36;;;;;;;25.70;9.65;;;12.50;99.90;;;;;;4150157;28;20683;-92
2023/06/02 02:17:44;;;;;;;15.25;9.25;;;12.50;99.90;;;;;;4134070;28;20188;-93
2023/06/02 02:19:50;;;;;;;18.45;11.13;;;12.50;99.90;;;;;;4149784;28;20197;-92
2023/06/02 02:21:52;;;;;;;19.58;10.98;;;12.50;99.90;;;;;;4150301;28;20177;-92
2023/06/02 02:23:54;;;;;;;22.05;9.82;;;12.50;99.90;;;;;;4152001;28;20230;-91
2023/06/02 02:25:55;;;;;;;18.40;10.13;;;12.50;99.90;;;;;;4150130;28;20201;-91
2023/06/02 02:27:56;;;;;;;18.13;9.90;;;12.50;99.90;;;;;;4135830;28;20619;-93
2023/06/02 02:29:57;;;;;;;20.83;9.27;;;12.50;99.90;;;;;;4135763;28;20166;-92
2023/06/02 02:31:58;;;;;;;18.42;9.77;;;12.50;99.90;;;;;;4150574;28;20173;-93
2023/06/02 02:34:00;;;;;;;19.25;8.88;;;12.60;99.90;;;;;;4133531;28;20743;-91
2023/06/02 02:36:02;;;;;;;16.90;6.85;;;12.60;99.90;;;;;;4150113;28;20664;-91
2023/06/02 02:38:06;;;;;;;13.90;7.57;;;12.50;99.90;;;;;;4150475;28;20551;-93
2023/06/02 02:40:07;;;;;;;18.23;7.22;;;12.60;99.90;;;;;;4167299;28;20204;-94
2023/06/02 02:42:08;;;;;;;15.90;6.10;;;12.60;99.90;;;;;;4152040;28;20181;-91
2023/06/02 02:44:09;;;;;;;10.05;6.32;;;12.60;99.90;;;;;;4149304;28;20169;-95
2023/06/02 02:46:10;;;;;;;16.05;6.45;;;12.50;99.90;;;;;;4133900;28;20194;-91
2023/06/02 02:48:11;;;;;;;17.13;6.82;;;12.40;99.90;;;;;;4133169;28;20214;-93
2023/06/02 02:50:12;;;;;;;18.55;6.10;;;12.50;99.90;;;;;;4150167;28;20180;-91
2023/06/02 02:52:17;;;;;;;14.27;6.18;;;12.60;99.90;;;;;;4152377;28;20871;-92
2023/06/02 02:54:18;;;;;;;18.55;6.13;;;12.40;99.90;;;;;;4166122;28;20169;-95
2023/06/02 02:56:22;;;;;;;11.05;5.63;;;12.40;99.90;;;;;;4148821;28;20188;-92
2023/06/02 02:58:24;;;;;;;21.15;5.25;;;12.40;99.90;;;;;;4133052;28;20638;-91
2023/06/02 03:00:25;;;;;;;13.10;5.60;;;12.50;99.90;;;;;;4148957;28;20216;-91
2023/06/02 03:02:26;;;;;;;17.90;5.70;;;12.60;99.90;;;;;;4149532;28;20219;-92
2023/06/02 03:04:26;;;;;;;18.85;5.47;;;12.50;99.90;;;;;;4150368;28;20573;-92
2023/06/02 03:06:31;;;;;;;17.08;5.38;;;12.50;99.90;;;;;;4148436;28;20243;-90
2023/06/02 03:08:32;;;;;;;17.90;5.07;;;12.40;99.90;;;;;;4148960;28;20169;-91
2023/06/02 03:10:33;;;;;;;13.18;5.15;;;12.40;99.90;;;;;;4132979;28;20259;-91
2023/06/02 03:12:34;;;;;;;24.08;5.30;;;12.50;99.90;;;;;;4149711;28;20255;-93
2023/06/02 03:14:35;;;;;;;14.00;4.80;;;12.50;99.90;;;;;;4149322;28;20212;-92
2023/06/02 03:16:41;;;;;;;23.35;5.30;;;12.50;99.90;;;;;;4148859;28;20196;-94
2023/06/02 03:18:44;;;;;;;12.40;4.60;;;12.50;99.90;;;;;;4133128;28;20173;-95
2023/06/02 03:20:48;;;;;;;21.00;4.55;;;12.50;99.90;;;;;;4149029;28;20762;-95
2023/06/02 03:22:51;;;;;;;13.40;4.13;;;12.30;99.90;;;;;;4149799;28;20175;-91
2023/06/02 03:24:52;;;;;;;14.23;4.50;;;12.20;99.90;;;;;;4165219;28;20203;-94
2023/06/02 03:26:57;;;;;;;12.82;4.50;;;12.30;99.90;;;;;;4150463;28;20224;-91
2023/06/02 03:28:58;;;;;;;14.63;4.38;;;12.40;99.90;;;;;;4149771;28;20168;-95
2023/06/02 03:30:59;;;;;;;13.87;3.93;;;12.40;99.90;;;;;;4148808;28;20529;-91
2023/06/02 03:33:00;;;;;;;11.05;3.85;;;12.30;99.90;;;;;;4148415;28;20173;-92
2023/06/02 03:35:02;;;;;;;10.25;3.63;;;12.30;99.90;;;;;;4149348;28;20199;-95
2023/06/02 03:37:21;;;;;;;20.48;4.72;;;12.50;99.90;;;;;;4132724;28;20673;-94
2023/06/02 03:39:23;;;;;;;14.25;4.47;;;12.60;99.90;;;;;;4148986;28;20185;-93
2023/06/02 03:41:24;;;;;;;13.82;5.00;;;12.50;99.90;;;;;;4148727;28;20175;-92
2023/06/02 03:43:26;;;;;;;12.10;4.93;;;12.40;99.90;;;;;;4133488;28;20204;-93
2023/06/02 03:45:27;;;;;;;13.77;5.57;;;12.30;99.90;;;;;;4132679;28;20174;-91
2023/06/02 03:47:27;;;;;;;13.55;5.63;;;12.30;99.90;;;;;;4133882;28;20245;-94
2023/06/02 03:49:29;;;;;;;15.30;4.88;;;12.30;99.90;;;;;;4132725;28;20169;-92
2023/06/02 03:51:33;;;;;;;14.68;5.05;;;12.30;99.90;;;;;;4132823;28;20256;-91
2023/06/02 03:53:35;;;;;;;16.48;4.88;;;12.30;99.90;;;;;;4133413;28;20177;-91
2023/06/02 03:55:36;;;;;;;13.63;3.85;;;12.30;99.90;;;;;;4165003;28;20294;-93
2023/06/02 03:57:38;;;;;;;18.05;5.15;;;12.20;99.90;;;;;;4148751;28;20172;-91
2023/06/02 03:59:39;;;;;;;12.48;4.95;;;12.20;99.90;;;;;;4148861;28;20201;-91
2023/06/02 04:01:42;;;;;;;11.60;4.03;;;12.20;99.90;;;;;;4148526;28;20181;-92
2023/06/02 04:03:44;;;;;;;12.60;4.28;;;12.20;99.90;;;;;;4148086;28;20530;-91
2023/06/02 04:05:47;;;;;;;16.63;4.22;;;12.30;99.90;;;;;;4132023;28;20288;-95
2023/06/02 04:07:48;;;;;;;15.10;4.57;;;12.30;99.90;;;;;;4164102;28;20165;-91
2023/06/02 04:09:50;;;;;;;20.55;4.60;;;12.40;99.90;;;;;;4150141;28;20268;-93
2023/06/02 04:11:51;;;;;;;29.15;4.95;;;12.40;99.90;;;;;;4151396;28;20169;-93
2023/06/02 04:13:52;;;;;;;17.30;4.32;;;12.40;99.90;;;;;;4135492;28;20252;-91
2023/06/02 04:15:53;;;;;;;15.00;4.10;;;12.40;99.90;;;;;;4151122;28;20189;-95
2023/06/02 04:17:54;;;;;;;15.18;4.55;;;12.40;99.90;;;;;;4150775;28;20183;-94
2023/06/02 04:19:55;;;;;;;17.60;3.80;;;12.30;99.90;;;;;;4167528;28;20208;-93
2023/06/02 04:21:56;;;;;;;13.88;3.88;;;12.20;99.90;;;;;;4135277;28;20268;-95
2023/06/02 04:23:57;;;;;;;8.55;2.60;;;12.20;99.90;;;;;;4135426;28;20657;-92
2023/06/02 04:25:58;;;;;;;18.00;3.40;;;12.20;99.90;;;;;;4167885;28;20278;-92
2023/06/02 04:27:59;;;;;;;9.43;3.10;;;12.20;99.90;;;;;;4134296;28;20674;-91
2023/06/02 04:30:01;;;;;;;18.25;3.60;;;12.20;99.90;;;;;;4167225;28;20708;-94
2023/06/02 04:32:05;;;;;;;11.65;3.38;;;12.30;99.90;;;;;;4135026;28;20181;-91
2023/06/02 04:34:06;;;;;;;11.15;3.08;;;12.30;99.90;;;;;;4167207;28;20168;-94
2023/06/02 04:36:07;;;;;;;9.90;3.63;;;12.30;99.90;;;;;;4150640;28;20200;-94
2023/06/02 04:38:12;;;;;;;12.13;2.50;;;12.40;99.90;;;;;;4151666;28;20181;-90
2023/06/02 04:40:13;;;;;;;14.82;3.20;;;12.30;99.90;;;;;;4167870;28;20216;-95
2023/06/02 04:42:15;;;;;;;18.93;3.40;;;12.30;99.90;;;;;;4150879;28;20236;-93
2023/06/02 04:44:18;;;;;;;14.98;3.45;;;12.30;99.90;;;;;;4151031;28;20173;-91
2023/06/02 04:46:24;;;;;;;15.98;3.75;;;12.30;99.90;;;;;;4134301;28;20186;-94
2023/06/02 04:48:24;;;;;;;15.10;3.58;;;12.30;99.90;;;;;;4150976;28;20630;-92
2023/06/02 04:50:27;;;;;;;15.13;3.00;;;12.30;99.90;;;;;;4150425;28;20180;-91
2023/06/02 04:52:28;;;;;;;20.10;3.70;;;12.40;99.90;;;;;;4166856;28;20172;-91
2023/06/02 04:54:29;;;;;;;10.98;2.95;;;12.50;99.90;;;;;;4151342;28;20206;-91
2023/06/02 04:56:32;;;;;;;15.75;2.97;;;12.40;99.90;;;;;;4150643;28;20196;-93
2023/06/02 04:58:34;;;;;;;9.77;2.63;;;12.40;99.90;;;;;;4150305;28;20161;-93
2023/06/02 05:00:35;;;;;;;19.92;3.40;;;12.50;99.90;;;;;;4150759;28;20213;-94
2023/06/02 05:02:36;;;;;;;16.50;3.67;;;12.50;99.90;;;;;;4150719;28;20185;-94
2023/06/02 05:04:38;;;;;;;14.25;3.33;;;12.50;99.90;;;;;;4150434;28;20177;-92
2023/06/02 05:06:39;;;;;;;19.75;3.55;;;12.50;99.90;;;;;;4152569;28;20185;-90
2023/06/02 05:08:41;;;;;;;17.10;4.13;;;12.50;99.90;;;;;;4157567;28;20199;-90
2023/06/02 05:10:47;;;;;;;17.83;3.85;;;12.50;99.90;;;;;;4152225;28;20646;-90
2023/06/02 05:12:49;;;;;;;14.38;4.28;;;12.40;99.90;;;;;;4135521;28;20204;-89
2023/06/02 05:14:51;;;;;;;19.00;6.53;;;12.40;99.90;;;;;;4153740;28;20173;-90
2023/06/02 05:16:53;;;;;;;27.60;8.85;;;12.30;99.90;;;;;;4151502;28;20204;-90
2023/06/02 05:18:54;;;;;;;19.67;6.85;;;12.20;99.90;;;;;;4152479;28;20185;-91
2023/06/02 05:20:59;;;;;;;17.55;6.70;;;12.20;99.90;;;;;;4133951;28;20239;-91
2023/06/02 05:23:11;;;;;;;22.42;6.10;;;12.30;99.90;;;;;;4154804;28;20188;-91
2023/06/02 05:25:12;;;;;;;17.92;5.70;;;12.40;99.90;;;;;;4135561;28;20590;-91
2023/06/02 05:27:16;;;;;;;17.42;5.93;;;12.50;99.90;;;;;;4154954;28;20573;-90
2023/06/02 05:29:17;;;;;;;12.40;5.25;;;12.50;99.90;;;;;;4151910;28;20795;-91
2023/06/02 05:31:18;;;;;;;16.70;5.57;;;12.50;99.90;;;;;;4150453;28;20168;-90
2023/06/02 05:33:20;;;;;;;17.10;5.55;;;12.50;99.90;;;;;;4153366;28;20660;-95
2023/06/02 05:35:21;;;;;;;21.98;5.32;;;12.50;99.90;;;;;;4150404;28;20173;-90
2023/06/02 05:37:25;;;;;;;19.90;5.00;;;12.50;99.90;;;;;;4152480;28;20648;-92
2023/06/02 05:39:29;;;;;;;16.35;4.80;;;12.40;99.90;;;;;;4134626;28;20186;-90
2023/06/02 05:41:32;;;;;;;14.10;5.30;;;12.40;99.90;;;;;;4136548;28;20186;-93
2023/06/02 05:43:36;;;;;;;19.05;5.55;;;12.30;99.90;;;;;;4136467;28;20240;-90
2023/06/02 05:45:37;;;;;;;16.95;7.00;;;12.40;99.90;;;;;;4151087;28;20262;-92
2023/06/02 05:47:37;;;;;;;25.38;9.13;;;12.50;99.90;;;;;;4137770;28;20260;-93
2023/06/02 05:49:39;;;;;;;15.10;6.78;;;12.60;99.90;;;;;;4155518;28;20521;-88
2023/06/02 05:51:40;;;;;;;23.35;8.23;;;12.60;99.90;;;;;;4151547;28;20172;-88
2023/06/02 05:53:41;;;;;;;21.45;8.70;;;12.50;99.90;;;;;;4136145;28;20200;-88
2023/06/02 05:55:43;;;;;;;18.33;8.90;;;12.50;99.90;;;;;;4151822;28;20193;-88
2023/06/02 05:57:45;;;;;;;20.38;8.20;;;12.60;99.90;;;;;;4151774;28;20264;-90
2023/06/02 05:59:48;;;;;;;21.08;6.57;;;12.70;99.90;;;;;;4135953;28;20212;-89
2023/06/02 06:01:52;;;;;;;21.15;5.60;;;12.80;99.90;;;;;;4150133;28;20176;-88
2023/06/02 06:03:54;;;;;;;14.73;4.35;;;12.80;99.90;;;;;;4134991;28;20177;-88
2023/06/02 06:05:55;;;;;;;19.45;5.32;;;12.50;99.90;;;;;;4151433;28;20201;-88
2023/06/02 06:07:56;;;;;;;19.38;5.57;;;12.40;99.90;;;;;;4149730;28;20181;-88
2023/06/02 06:10:01;;;;;;;18.52;5.30;;;12.40;99.90;;;;;;4152617;28;20169;-90
2023/06/02 06:12:05;;;;;;;17.40;5.07;;;12.50;99.90;;;;;;4136380;28;20173;-89
2023/06/02 06:14:09;;;;;;;20.10;5.22;;;12.70;99.90;;;;;;4151668;28;20173;-89
2023/06/02 06:16:13;;;;;;;20.50;5.75;;;12.80;99.90;;;;;;4151782;28;20199;-88
2023/06/02 06:18:16;;;;;;;19.63;4.43;;;12.80;99.90;;;;;;4165858;28;20281;-89
2023/06/02 06:20:18;;;;;;;23.25;4.78;;;12.70;99.90;;;;;;4138944;28;20254;-88
2023/06/02 06:22:19;;;;;;;15.75;4.43;;;12.50;99.90;;;;;;4151332;28;20169;-88
2023/06/02 06:24:20;;;;;;;19.92;4.78;;;12.40;99.90;;;;;;4150352;28;20183;-89
2023/06/02 06:26:21;;;;;;;17.42;4.43;;;12.30;99.90;;;;;;4134713;28;20287;-90
2023/06/02 06:28:25;;;;;;;20.67;6.10;;;12.30;99.90;;;;;;4135624;28;20174;-88
2023/06/02 06:30:39;;;;;;;30.17;5.00;;;12.30;99.90;;;;;;4153029;28;20271;-88
2023/06/02 06:32:40;;;;;;;20.95;4.70;;;12.40;99.90;;;;;;4168614;28;20168;-89
2023/06/02 06:34:43;;;;;;;22.42;4.60;;;12.50;99.90;;;;;;4134823;28;20173;-89
2023/06/02 06:36:46;;;;;;;30.23;5.30;;;12.60;99.90;;;;;;4136108;28;20266;-88
2023/06/02 06:38:51;;;;;;;27.27;4.93;;;12.70;99.90;;;;;;4151724;28;20192;-90
2023/06/02 06:40:53;;;;;;;15.48;4.60;;;12.90;99.90;;;;;;4135312;28;20240;-89
2023/06/02 06:42:53;;;;;;;21.58;5.03;;;12.90;99.90;;;;;;4150615;28;20169;-89
2023/06/02 06:45:02;;;;;;;14.07;4.03;;;13.00;99.90;;;;;;4150830;28;20185;-89
2023/06/02 06:47:05;;;;;;;22.65;4.57;;;12.90;99.90;;;;;;4163120;28;20196;-88
2023/06/02 06:49:07;;;;;;;17.63;4.50;;;12.80;99.90;;;;;;4145367;28;20185;-93
2023/06/02 06:51:08;;;;;;;14.40;4.80;;;12.70;99.90;;;;;;4150323;28;20172;-89
2023/06/02 06:53:09;;;;;;;18.42;4.85;;;12.60;99.90;;;;;;4135339;28;20593;-89
2023/06/02 06:55:11;;;;;;;14.20;4.85;;;12.60;99.90;;;;;;4148985;28;20280;-89
2023/06/02 06:57:12;;;;;;;18.88;5.85;;;12.50;99.90;;;;;;4135094;28;20573;-88
2023/06/02 06:59:13;;;;;;;17.58;5.47;;;12.60;99.90;;;;;;4134592;28;20662;-88
2023/06/02 07:01:14;;;;;;;12.90;5.25;;;12.50;99.90;;;;;;4133974;28;20304;-88
2023/06/02 07:03:15;;;;;;;16.02;5.68;;;12.60;99.90;;;;;;4136348;28;20197;-89
2023/06/02 07:05:16;;;;;;;22.35;5.72;;;12.70;99.90;;;;;;4133743;28;20189;-89
2023/06/02 07:07:17;;;;;;;14.13;4.90;;;12.80;99.90;;;;;;4150371;28;20162;-88
2023/06/02 07:09:23;;;;;;;14.30;4.90;;;12.90;99.90;;;;;;4151173;28;20177;-88
2023/06/02 07:11:23;;;;;;;16.60;3.83;;;12.80;99.90;;;;;;4153445;28;20164;-93
2023/06/02 07:13:27;;;;;;;15.20;4.25;;;12.70;99.90;;;;;;4154978;28;20210;-90
2023/06/02 07:15:28;;;;;;;10.20;3.10;;;12.70;99.90;;;;;;4156034;28;20264;-88
2023/06/02 07:17:29;;;;;;;13.70;4.28;;;12.70;99.90;;;;;;4136154;28;20177;-88
2023/06/02 07:19:30;;;;;;;14.77;5.22;;;12.70;99.90;;;;;;4152705;28;20610;-88
2023/06/02 07:21:31;;;;;;;15.98;4.90;;;12.70;99.90;;;;;;4155364;28;20177;-89
2023/06/02 07:23:36;;;;;;;18.27;4.65;;;12.80;99.90;;;;;;4150905;28;20145;-89
2023/06/02 07:25:39;;;;;;;16.98;4.72;;;12.90;99.90;;;;;;4138131;28;20236;-90
2023/06/02 07:27:43;;;;;;;16.85;4.68;;;12.90;99.90;;;;;;4152528;28;20741;-89
2023/06/02 07:29:44;;;;;;;13.02;4.45;;;13.00;99.90;;;;;;4135544;28;20182;-89
2023/06/02 07:31:46;;;;;;;17.80;4.97;;;13.10;99.90;;;;;;4151097;28;20264;-88
2023/06/02 07:33:46;;;;;;;14.88;4.50;;;13.20;99.90;;;;;;4151180;28;20172;-89
2023/06/02 07:35:47;;;;;;;18.77;4.70;;;13.20;99.90;;;;;;4168134;28;20278;-89
2023/06/02 07:37:53;;;;;;;13.88;4.40;;;13.10;99.90;;;;;;4150565;28;20180;-89
2023/06/02 07:39:58;;;;;;;18.85;4.80;;;13.10;99.90;;;;;;4149269;28;20230;-87
2023/06/02 07:41:58;;;;;;;20.25;5.82;;;13.10;99.90;;;;;;4132653;28;20214;-89
2023/06/02 07:43:59;;;;;;;20.70;5.43;;;13.00;99.90;;;;;;4137056;28;20177;-89
2023/06/02 07:46:00;;;;;;;13.77;4.20;;;13.10;99.90;;;;;;4154496;28;20189;-90
2023/06/02 07:48:03;;;;;;;16.38;4.68;;;13.10;99.90;;;;;;4154838;28;20173;-89
2023/06/02 07:50:06;;;;;;;20.85;4.88;;;13.00;99.90;;;;;;4136433;28;20697;-89
2023/06/02 07:52:07;;;;;;;19.58;5.40;;;13.20;99.90;;;;;;4137184;28;20177;-89
2023/06/02 07:54:08;;;;;;;16.00;5.25;;;13.30;99.90;;;;;;4152932;28;20657;-89
2023/06/02 07:56:08;;;;;;;20.55;4.60;;;13.40;99.90;;;;;;4139485;28;20200;-91
2023/06/02 07:58:10;;;;;;;17.85;5.22;;;13.40;99.90;;;;;;4152400;28;20173;-88
2023/06/02 08:00:19;;;;;;;19.50;4.13;;;13.30;99.90;;;;;;4135545;28;20201;-89
2023/06/02 08:02:20;;;;;;;20.38;5.22;;;13.30;99.90;;;;;;4154046;28;20259;-89
2023/06/02 08:04:25;;;;;;;19.08;5.05;;;13.40;99.90;;;;;;4134915;28;20264;-90
2023/06/02 08:06:26;;;;;;;18.90;4.80;;;13.60;99.90;;;;;;4136669;28;20197;-89
2023/06/02 08:08:29;;;;;;;15.68;5.13;;;13.60;99.90;;;;;;4152243;28;20735;-88
2023/06/02 08:10:30;;;;;;;15.55;4.93;;;13.60;99.90;;;;;;4153114;28;20180;-89
2023/06/02 08:12:31;;;;;;;14.40;4.70;;;13.70;99.90;;;;;;4137916;28;20165;-87
2023/06/02 08:14:32;;;;;;;15.30;4.55;;;13.60;99.90;;;;;;4152781;28;20188;-88
2023/06/02 08:16:32;;;;;;;15.10;5.13;;;13.50;99.90;;;;;;4151485;28;20195;-89
2023/06/02 08:18:34;;;;;;;11.45;4.53;;;13.30;99.90;;;;;;4157008;28;20193;-88
2023/06/02 08:20:39;;;;;;;10.05;4.95;;;13.20;99.90;;;;;;4170937;28;20219;-89
2023/06/02 08:22:40;;;;;;;14.77;4.68;;;13.20;99.90;;;;;;4137168;28;20174;-88
2023/06/02 08:24:41;;;;;;;15.32;4.80;;;13.20;99.90;;;;;;4152198;28;20176;-89
2023/06/02 08:26:48;;;;;;;15.05;4.63;;;13.10;99.90;;;;;;4167416;28;20687;-88
2023/06/02 08:28:49;;;;;;;13.90;4.05;;;13.20;99.90;;;;;;4152303;28;20272;-89
2023/06/02 08:30:51;;;;;;;15.32;4.28;;;13.30;99.90;;;;;;4135219;28;20177;-88
2023/06/02 08:32:52;;;;;;;12.77;4.30;;;13.30;99.90;;;;;;4154240;28;20169;-89
2023/06/02 08:35:01;;;;;;;17.15;4.43;;;13.30;99.90;;;;;;4153807;28;20681;-88
2023/06/02 08:37:01;;;;;;;11.05;4.00;;;13.50;99.90;;;;;;4167584;28;20232;-89
2023/06/02 08:39:08;;;;;;;18.63;3.97;;;13.40;99.90;;;;;;4152782;28;20565;-88
2023/06/02 08:41:13;;;;;;;15.68;3.78;;;13.30;99.90;;;;;;4151597;28;20698;-90
2023/06/02 08:43:14;;;;;;;14.57;3.58;;;13.30;99.90;;;;;;4169690;28;20172;-89
2023/06/02 08:45:20;;;;;;;14.45;3.80;;;13.30;99.90;;;;;;4135822;28;20682;-88
2023/06/02 08:47:30;;;;;;;13.48;3.63;;;13.40;99.90;;;;;;4139334;28;20189;-89
2023/06/02 08:49:34;;;;;;;11.93;3.72;;;13.50;99.90;;;;;;4152187;28;20172;-89
2023/06/02 08:51:38;;;;;;;9.40;3.33;;;13.80;99.90;;;;;;4136584;28;20692;-88
2023/06/02 08:53:43;;;;;;;9.50;3.50;;;13.80;99.90;;;;;;4151480;28;20208;-88
2023/06/02 08:55:48;;;;;;;10.25;3.47;;;13.80;99.90;;;;;;4150136;28;20236;-88
2023/06/02 08:57:48;;;;;;;12.65;3.90;;;13.70;99.90;;;;;;4152561;28;20184;-89
2023/06/02 08:59:49;;;;;;;12.55;3.92;;;13.70;99.90;;;;;;4133820;28;20693;-88
2023/06/02 09:01:55;;;;;;;15.52;3.95;;;13.70;99.90;;;;;;4135290;28;20184;-89
2023/06/02 09:04:00;;;;;;;11.40;3.60;;;13.80;99.90;;;;;;4150990;28;20277;-87
2023/06/02 09:06:19;;;;;;;10.55;3.67;;;13.80;99.90;;;;;;4135634;28;20229;-87
2023/06/02 09:08:22;;;;;;;17.92;4.50;;;14.00;99.90;;;;;;4135315;28;20720;-88
2023/06/02 09:10:30;;;;;;;16.55;3.63;;;14.30;99.90;;;;;;4136214;28;20169;-90
2023/06/02 09:12:47;;;;;;;9.52;3.97;;;14.20;99.90;;;;;;4143245;28;20169;-88
2023/06/02 09:15:09;;;;;;;14.27;4.10;;;14.20;99.90;;;;;;4166114;28;20173;-87
2023/06/02 09:17:27;;;;;;;13.10;4.82;;;14.00;99.90;;;;;;4138129;28;20240;-88
2023/06/02 09:19:50;;;;;;;9.10;4.35;;;13.90;99.90;;;;;;4167556;28;20176;-87
2023/06/02 09:21:51;;;;;;;10.73;4.25;;;13.90;99.90;;;;;;4134489;28;20244;-87
2023/06/02 09:23:52;;;;;;;11.02;3.92;;;13.90;99.90;;;;;;4136282;28;20173;-90
2023/06/02 09:25:56;;;;;;;16.48;5.05;;;14.00;99.90;;;;;;4135090;28;20200;-90
2023/06/02 09:27:58;;;;;;;16.63;3.67;;;14.10;99.90;;;;;;4151862;28;20172;-89
2023/06/02 09:30:02;;;;;;;16.02;3.10;;;14.30;99.90;;;;;;4135058;28;20177;-89
2023/06/02 09:32:17;;;;;;;16.98;3.80;;;14.80;99.90;;;;;;4135471;28;20184;-87
2023/06/02 09:34:20;;;;;;;14.00;3.53;;;15.10;99.90;;;;;;4134306;28;20180;-88
2023/06/02 09:36:30;;;;;;;14.93;4.10;;;14.90;99.90;;;;;;4133930;28;20193;-87
2023/06/02 09:38:43;;;;;;;12.65;3.80;;;14.70;99.90;;;;;;4166926;28;20664;-87
2023/06/02 09:40:44;;;;;;;17.80;4.28;;;14.70;99.90;;;;;;4150425;28;20204;-89
2023/06/02 09:42:45;;;;;;;12.32;3.58;;;14.80;99.90;;;;;;4152237;28;20815;-87
2023/06/02 09:45:06;;;;;;;12.57;3.78;;;15.00;99.90;;;;;;4134376;28;20173;-87
2023/06/02 09:47:22;;;;;;;12.15;3.85;;;15.10;99.90;;;;;;4167117;28;20294;-88
2023/06/02 09:49:23;;;;;;;10.95;3.67;;;15.00;99.90;;;;;;4134591;28;20673;-88
2023/06/02 09:51:25;;;;;;;11.13;3.70;;;15.00;99.90;;;;;;4134786;28;20182;-89
2023/06/02 09:53:27;;;;;;;13.15;3.33;;;15.00;99.90;;;;;;4135979;28;20585;-88
2023/06/02 09:55:33;;;;;;;20.58;4.13;;;14.90;99.90;;;;;;4135023;28;20181;-86
2023/06/02 09:57:34;;;;;;;15.32;3.63;;;15.00;99.90;;;;;;4151027;28;20193;-89
2023/06/02 09:59:37;;;;;;;12.32;3.80;;;15.10;99.90;;;;;;4134597;28;20685;-87
2023/06/02 10:01:38;;;;;;;13.40;3.30;;;15.50;99.90;;;;;;4151699;28;20664;-88
2023/06/02 10:03:44;;;;;;;13.27;3.60;;;16.00;99.90;;;;;;4150884;28;20177;-90
2023/06/02 10:06:15;;;;;;;12.88;3.15;;;16.30;99.90;;;;;;4151006;28;20196;-87
2023/06/02 10:08:37;;;;;;;11.68;3.63;;;16.50;99.90;;;;;;4126455;28;20284;-88
2023/06/02 10:10:50;;;;;;;24.17;4.32;;;16.10;99.90;;;;;;4147181;28;20169;-89
2023/06/02 10:13:00;;;;;;;26.73;4.22;;;15.90;99.90;;;;;;4165393;28;20211;-86
2023/06/02 10:15:32;;;;;;;262.55;11.77;;;16.00;99.90;;;;;;4151066;28;20176;-87
2023/06/02 10:17:48;;;;;;;14.32;4.82;;;16.00;99.90;;;;;;4166774;28;20697;-86
2023/06/02 10:20:10;;;;;;;13.85;4.85;;;15.70;99.90;;;;;;4148251;28;20203;-91
2023/06/02 10:22:45;;;;;;;16.83;5.22;;;15.50;99.90;;;;;;4166639;28;20187;-90
2023/06/02 10:24:49;;;;;;;13.00;4.47;;;15.70;99.90;;;;;;4117357;28;20683;-90
2023/06/02 10:27:17;;;;;;;17.25;4.13;;;16.20;99.90;;;;;;4156277;28;20204;-88
2023/06/02 10:29:24;;;;;;;14.77;4.10;;;16.20;99.90;;;;;;4150579;28;20260;-89
2023/06/02 10:31:32;;;;;;;13.25;3.90;;;16.20;99.90;;;;;;4135586;28;20264;-88
2023/06/02 10:33:43;;;;;;;17.30;3.30;;;16.00;99.90;;;;;;4149117;28;20263;-88
2023/06/02 10:36:00;;;;;;;19.13;3.97;;;15.70;99.90;;;;;;4132611;28;20256;-89